createdAt,value
2023-03-03T00:01:37.900Z,72.59
2023-03-03T00:04:09.228Z,72.73
2023-03-03T00:06:40.080Z,72.03
2023-03-03T00:09:13.046Z,71.29
2023-03-03T00:11:47.895Z,71.18
2023-03-03T00:14:30.077Z,70.99
2023-03-03T00:17:07.959Z,71.71
2023-03-03T00:19:47.951Z,71.47
2023-03-03T00:22:36.713Z,71.43
2023-03-03T00:25:29.255Z,71.23
2023-03-03T00:28:35.672Z,71.09
2023-03-03T00:31:13.301Z,70.91
2023-03-03T00:33:56.282Z,71.08
2023-03-03T00:36:31.809Z,70.49
2023-03-03T00:39:38.776Z,69.92
2023-03-03T00:42:17.208Z,69.65
2023-03-03T00:44:59.091Z,70.17
2023-03-03T00:47:39.304Z,70.00
2023-03-03T00:50:12.997Z,70.17
2023-03-03T00:53:13.816Z,70.45
2023-03-03T00:55:46.791Z,70.62
2023-03-03T00:58:18.714Z,70.47
2023-03-03T01:00:51.881Z,70.30
2023-03-03T01:03:25.619Z,70.56
2023-03-03T01:05:56.642Z,70.08
2023-03-03T01:08:27.342Z,69.24
2023-03-03T01:11:00.630Z,69.38
2023-03-03T01:13:33.244Z,69.67
2023-03-03T01:16:02.841Z,69.75
2023-03-03T01:18:32.782Z,69.95
2023-03-03T01:21:02.347Z,70.15
2023-03-03T01:23:38.694Z,70.17
2023-03-03T01:26:11.619Z,70.00
2023-03-03T01:28:47.596Z,70.06
2023-03-03T01:31:18.749Z,69.76
2023-03-03T01:33:53.584Z,69.81
2023-03-03T01:36:27.790Z,69.89
2023-03-03T01:38:57.940Z,69.54
2023-03-03T01:41:32.956Z,68.63
2023-03-03T01:44:02.734Z,68.20
2023-03-03T01:46:38.130Z,68.68
2023-03-03T01:49:21.271Z,68.84
2023-03-03T01:52:04.586Z,68.77
2023-03-03T01:54:44.284Z,68.91
2023-03-03T01:57:17.712Z,69.13
2023-03-03T01:59:49.396Z,69.12
2023-03-03T02:02:20.361Z,69.11
2023-03-03T02:04:55.904Z,69.27
2023-03-03T02:07:27.295Z,69.38
2023-03-03T02:10:08.317Z,69.13
2023-03-03T02:12:46.627Z,69.12
2023-03-03T02:15:36.019Z,68.37
2023-03-03T02:18:18.198Z,68.19
2023-03-03T02:21:16.564Z,68.76
2023-03-03T02:24:03.862Z,68.82
2023-03-03T02:26:43.807Z,69.03
2023-03-03T02:29:14.928Z,69.20
2023-03-03T02:31:44.342Z,69.51
2023-03-03T02:34:18.130Z,69.17
2023-03-03T02:36:50.230Z,69.47
2023-03-03T02:39:25.620Z,69.53
2023-03-03T02:42:19.961Z,69.67
2023-03-03T02:44:57.852Z,69.67
2023-03-03T02:47:32.454Z,69.58
2023-03-03T02:50:03.466Z,69.12
2023-03-03T02:52:38.099Z,69.04
2023-03-03T02:55:09.423Z,68.42
2023-03-03T02:57:43.423Z,68.84
2023-03-03T03:00:16.506Z,69.27
2023-03-03T03:02:54.113Z,69.45
2023-03-03T03:05:24.368Z,69.47
2023-03-03T03:07:55.317Z,69.72
2023-03-03T03:10:30.222Z,69.53
2023-03-03T03:13:01.833Z,69.62
2023-03-03T03:15:40.358Z,69.69
2023-03-03T03:18:11.496Z,69.71
2023-03-03T03:20:47.461Z,69.74
2023-03-03T03:23:22.545Z,69.43
2023-03-03T03:25:54.286Z,68.46
2023-03-03T03:28:33.392Z,68.94
2023-03-03T03:31:07.708Z,69.37
2023-03-03T03:33:38.389Z,69.67
2023-03-03T03:36:13.549Z,69.64
2023-03-03T03:38:45.420Z,69.57
2023-03-03T03:41:22.891Z,69.84
2023-03-03T03:43:54.251Z,69.87
2023-03-03T03:46:26.184Z,69.97
2023-03-03T03:49:01.492Z,69.72
2023-03-03T03:51:36.361Z,70.36
2023-03-03T03:54:10.718Z,69.63
2023-03-03T03:56:42.938Z,69.35
2023-03-03T03:59:15.051Z,69.24
2023-03-03T04:01:50.816Z,69.69
2023-03-03T04:04:26.415Z,69.89
2023-03-03T04:07:00.388Z,70.23
2023-03-03T04:09:31.404Z,70.19
2023-03-03T04:12:27.759Z,70.50
2023-03-03T04:15:00.162Z,70.60
2023-03-03T04:17:32.950Z,70.78
2023-03-03T04:20:04.688Z,70.95
2023-03-03T04:22:36.261Z,70.72
2023-03-03T04:25:07.755Z,70.26
2023-03-03T04:27:43.387Z,69.48
2023-03-03T04:30:41.887Z,69.52
2023-03-03T04:33:11.858Z,69.79
2023-03-03T04:35:46.383Z,70.14
2023-03-03T04:38:17.316Z,70.07
2023-03-03T04:40:49.553Z,70.08
2023-03-03T04:43:22.668Z,70.29
2023-03-03T04:46:04.663Z,70.13
2023-03-03T04:48:35.710Z,70.49
2023-03-03T04:51:29.520Z,70.45
2023-03-03T04:54:01.548Z,69.73
2023-03-03T04:56:34.159Z,69.52
2023-03-03T04:59:04.472Z,69.73
2023-03-03T05:08:27.545Z,70.31
2023-03-03T05:11:03.254Z,70.53
2023-03-03T05:13:36.457Z,70.51
2023-03-03T05:16:11.119Z,70.48
2023-03-03T05:18:45.088Z,69.67
2023-03-03T05:21:18.829Z,69.25
2023-03-03T05:23:52.106Z,68.64
2023-03-03T05:26:31.905Z,68.99
2023-03-03T05:29:03.113Z,69.38
2023-03-03T05:31:37.866Z,69.40
2023-03-03T05:34:08.410Z,69.17
2023-03-03T05:36:37.964Z,69.08
2023-03-03T05:39:16.092Z,68.82
2023-03-03T05:41:43.408Z,69.27
2023-03-03T05:44:14.308Z,69.09
2023-03-03T05:46:44.910Z,68.90
2023-03-03T05:49:22.309Z,68.95
2023-03-03T05:51:55.310Z,68.18
2023-03-03T05:54:26.021Z,67.60
2023-03-03T05:56:57.505Z,67.33
2023-03-03T05:59:32.539Z,67.90
2023-03-03T06:02:12.658Z,68.08
2023-03-03T06:04:42.829Z,67.97
2023-03-03T06:07:17.171Z,68.12
2023-03-03T06:09:45.911Z,68.10
2023-03-03T06:12:19.398Z,68.39
2023-03-03T06:14:54.469Z,68.41
2023-03-03T06:17:30.453Z,68.38
2023-03-03T06:20:05.615Z,68.37
2023-03-03T06:22:37.813Z,68.44
2023-03-03T06:28:55.502Z,67.06
2023-03-03T06:31:26.568Z,67.59
2023-03-03T06:34:47.076Z,67.57
2023-03-03T06:37:51.374Z,67.50
2023-03-03T06:40:32.838Z,67.95
2023-03-03T06:43:30.499Z,68.37
2023-03-03T06:46:13.533Z,68.23
2023-03-03T06:48:43.628Z,68.00
2023-03-03T06:51:29.409Z,67.65
2023-03-03T06:54:15.420Z,67.19
2023-03-03T06:56:47.961Z,66.88
2023-03-03T06:59:58.723Z,67.10
2023-03-03T07:02:27.856Z,66.82
2023-03-03T07:05:01.105Z,67.28
2023-03-03T07:07:31.634Z,67.64
2023-03-03T07:10:02.902Z,67.58
2023-03-03T07:13:11.632Z,67.53
2023-03-03T07:15:46.650Z,67.70
2023-03-03T07:18:41.726Z,68.08
2023-03-03T07:21:44.001Z,67.93
2023-03-03T07:24:30.763Z,66.62
2023-03-03T07:27:11.297Z,66.39
2023-03-03T07:29:44.211Z,66.46
2023-03-03T07:32:47.724Z,66.95
2023-03-03T07:35:32.961Z,66.65
2023-03-03T07:39:06.594Z,66.68
2023-03-03T07:42:24.472Z,66.95
2023-03-03T07:45:09.710Z,67.17
2023-03-03T07:47:47.091Z,67.31
2023-03-03T07:51:06.259Z,67.42
2023-03-03T07:53:36.592Z,67.56
2023-03-03T07:56:26.781Z,66.28
2023-03-03T07:58:56.869Z,65.95
2023-03-03T08:01:42.779Z,66.03
2023-03-03T08:04:18.893Z,65.91
2023-03-03T08:06:56.857Z,66.52
2023-03-03T08:09:39.033Z,66.29
2023-03-03T08:12:30.773Z,66.34
2023-03-03T08:15:26.652Z,66.22
2023-03-03T08:18:34.453Z,66.10
2023-03-03T08:21:09.761Z,66.15
2023-03-03T08:23:52.648Z,65.95
2023-03-03T08:26:22.956Z,65.26
2023-03-03T08:28:53.998Z,65.10
2023-03-03T08:31:40.731Z,64.97
2023-03-03T08:34:32.454Z,65.40
2023-03-03T08:37:08.873Z,65.56
2023-03-03T08:40:10.967Z,65.59
2023-03-03T08:42:43.624Z,65.73
2023-03-03T08:45:15.042Z,65.75
2023-03-03T08:47:47.818Z,65.85
2023-03-03T08:50:22.300Z,65.94
2023-03-03T08:52:54.226Z,65.80
2023-03-03T08:55:29.197Z,65.93
2023-03-03T08:58:01.971Z,65.43
2023-03-03T09:00:34.265Z,64.84
2023-03-03T09:03:26.995Z,64.21
2023-03-03T09:05:59.985Z,63.93
2023-03-03T09:08:32.044Z,64.35
2023-03-03T09:11:13.112Z,64.54
2023-03-03T09:14:31.423Z,64.65
2023-03-03T09:17:33.425Z,64.58
2023-03-03T09:20:44.542Z,64.45
2023-03-03T09:23:43.061Z,64.18
2023-03-03T09:26:33.150Z,64.13
2023-03-03T09:29:11.496Z,64.20
2023-03-03T09:32:39.430Z,64.01
2023-03-03T09:35:32.957Z,63.01
2023-03-03T09:38:03.551Z,61.75
2023-03-03T09:41:13.757Z,61.30
2023-03-03T09:44:04.703Z,61.37
2023-03-03T09:47:06.640Z,61.52
2023-03-03T09:50:19.677Z,61.24
2023-03-03T09:53:16.744Z,61.09
2023-03-03T09:56:16.600Z,61.23
2023-03-03T09:58:56.863Z,61.27
2023-03-03T10:02:06.038Z,61.67
2023-03-03T10:05:14.656Z,61.52
2023-03-03T10:07:55.210Z,61.84
2023-03-03T10:10:54.369Z,61.77
2023-03-03T10:14:20.477Z,62.10
2023-03-03T10:17:06.730Z,62.55
2023-03-03T10:20:01.672Z,62.83
2023-03-03T10:22:47.501Z,63.05
2023-03-03T10:25:55.297Z,62.26
2023-03-03T10:28:55.535Z,61.39
2023-03-03T10:31:28.914Z,61.02
2023-03-03T10:34:48.452Z,61.10
2023-03-03T10:38:09.183Z,61.46
2023-03-03T10:41:21.704Z,61.80
2023-03-03T10:45:07.332Z,62.08
2023-03-03T10:47:53.325Z,61.91
2023-03-03T10:50:57.951Z,62.38
2023-03-03T10:54:06.108Z,62.04
2023-03-03T10:57:07.356Z,62.17
2023-03-03T11:00:17.158Z,62.01
2023-03-03T11:02:55.496Z,61.92
2023-03-03T11:05:45.673Z,62.12
2023-03-03T11:08:58.798Z,61.86
2023-03-03T11:12:04.483Z,61.46
2023-03-03T11:15:26.875Z,61.65
2023-03-03T11:18:32.273Z,61.38
2023-03-03T11:25:17.826Z,61.11
2023-03-03T11:28:53.483Z,60.14
2023-03-03T11:31:31.990Z,59.44
2023-03-03T11:34:34.138Z,59.60
2023-03-03T11:38:06.782Z,59.60
2023-03-03T11:40:56.519Z,59.18
2023-03-03T11:44:25.574Z,58.79
2023-03-03T11:47:31.993Z,59.14
2023-03-03T11:50:04.821Z,59.13
2023-03-03T11:53:23.534Z,58.89
2023-03-03T11:56:04.461Z,58.73
2023-03-03T11:58:41.800Z,59.18
2023-03-03T12:01:33.387Z,58.57
2023-03-03T12:04:25.512Z,58.40
2023-03-03T12:07:19.673Z,58.22
2023-03-03T12:10:23.932Z,58.18
2023-03-03T12:13:42.448Z,57.96
2023-03-03T12:16:42.415Z,58.03
2023-03-03T12:19:29.836Z,57.74
2023-03-03T12:22:13.698Z,57.82
2023-03-03T12:25:02.906Z,58.08
2023-03-03T12:27:52.409Z,58.03
2023-03-03T12:30:56.560Z,57.97
2023-03-03T12:33:59.739Z,57.96
2023-03-03T12:36:45.933Z,58.04
2023-03-03T12:40:13.510Z,58.21
2023-03-03T12:42:50.325Z,58.72
2023-03-03T12:46:13.727Z,58.70
2023-03-03T12:48:57.736Z,58.74
2023-03-03T12:51:55.796Z,59.23
2023-03-03T12:55:01.653Z,58.92
2023-03-03T12:58:16.934Z,58.64
2023-03-03T13:01:41.562Z,58.56
2023-03-03T13:04:32.837Z,58.99
2023-03-03T13:07:15.358Z,58.66
2023-03-03T13:10:11.128Z,58.59
2023-03-03T13:13:20.712Z,58.66
2023-03-03T13:16:31.946Z,58.31
2023-03-03T13:19:26.973Z,58.38
2023-03-03T13:22:09.214Z,58.22
2023-03-03T13:24:57.291Z,58.04
2023-03-03T13:27:53.226Z,58.16
2023-03-03T13:30:31.775Z,58.31
2023-03-03T13:33:14.918Z,58.56
2023-03-03T13:36:14.777Z,58.30
2023-03-03T13:39:13.266Z,58.08
2023-03-03T13:41:50.350Z,58.13
2023-03-03T13:44:46.059Z,57.88
2023-03-03T13:48:02.825Z,57.99
2023-03-03T13:50:58.005Z,57.87
2023-03-03T13:54:19.217Z,58.07
2023-03-03T13:57:24.776Z,58.31
2023-03-03T14:00:25.606Z,58.57
2023-03-03T14:03:06.892Z,59.03
2023-03-03T14:06:14.324Z,59.21
2023-03-03T14:09:32.171Z,59.09
2023-03-03T14:12:39.822Z,58.59
2023-03-03T14:15:21.952Z,58.46
2023-03-03T14:18:25.576Z,58.84
2023-03-03T14:21:04.405Z,59.18
2023-03-03T14:24:16.260Z,59.31
2023-03-03T14:27:06.753Z,59.21
2023-03-03T14:29:38.998Z,59.29
2023-03-03T14:32:30.456Z,59.64
2023-03-03T14:35:15.542Z,59.67
2023-03-03T14:37:45.772Z,59.82
2023-03-03T14:40:44.969Z,60.14
2023-03-03T14:43:23.389Z,60.36
2023-03-03T14:45:53.342Z,60.65
2023-03-03T14:48:25.054Z,60.56
2023-03-03T14:51:32.958Z,60.51
2023-03-03T14:54:05.444Z,60.02
2023-03-03T14:56:35.041Z,60.01
2023-03-03T14:59:25.144Z,60.33
2023-03-03T15:02:17.847Z,60.60
2023-03-03T15:05:09.216Z,60.87
2023-03-03T15:07:40.900Z,60.93
2023-03-03T15:10:18.006Z,61.19
2023-03-03T15:12:53.953Z,61.29
2023-03-03T15:15:26.570Z,61.31
2023-03-03T15:18:03.812Z,61.43
2023-03-03T15:20:50.490Z,61.96
2023-03-03T15:23:42.173Z,61.68
2023-03-03T15:26:49.800Z,62.05
2023-03-03T15:29:26.112Z,61.75
2023-03-03T15:32:40.321Z,61.15
2023-03-03T15:35:26.448Z,61.08
2023-03-03T15:38:29.692Z,61.61
2023-03-03T15:41:21.864Z,61.98
2023-03-03T15:44:38.169Z,62.07
2023-03-03T15:47:41.233Z,62.08
2023-03-03T15:51:13.189Z,62.46
2023-03-03T15:54:21.899Z,62.79
2023-03-03T15:57:25.313Z,62.88
2023-03-03T16:00:36.862Z,62.93
2023-03-03T16:03:20.575Z,62.93
2023-03-03T16:06:10.656Z,62.62
2023-03-03T16:08:57.207Z,62.10
2023-03-03T16:11:50.071Z,61.95
2023-03-03T16:15:14.271Z,62.21
2023-03-03T16:18:54.324Z,62.57
2023-03-03T16:22:59.082Z,62.58
2023-03-03T16:26:02.606Z,62.40
2023-03-03T16:28:58.328Z,62.46
2023-03-03T16:32:04.367Z,62.82
2023-03-03T16:34:58.417Z,62.89
2023-03-03T16:37:44.540Z,63.15
2023-03-03T16:40:34.514Z,63.48
2023-03-03T16:43:38.713Z,63.53
2023-03-03T16:46:46.699Z,63.49
2023-03-03T16:49:32.823Z,62.91
2023-03-03T16:52:29.884Z,63.13
2023-03-03T16:55:41.015Z,63.15
2023-03-03T16:58:53.721Z,63.21
2023-03-03T17:01:43.691Z,63.47
2023-03-03T17:04:51.131Z,63.35
2023-03-03T17:07:55.224Z,63.64
2023-03-03T17:11:30.834Z,63.81
2023-03-03T17:14:50.133Z,63.60
2023-03-03T17:17:44.001Z,63.87
2023-03-03T17:20:27.258Z,63.63
2023-03-03T17:23:36.406Z,63.56
2023-03-03T17:26:21.762Z,63.29
2023-03-03T17:29:24.729Z,63.14
2023-03-03T17:32:16.230Z,63.38
2023-03-03T17:35:51.971Z,63.50
2023-03-03T17:39:00.982Z,63.51
2023-03-03T17:42:13.994Z,63.06
2023-03-03T17:44:57.532Z,63.65
2023-03-03T17:48:07.140Z,63.87
2023-03-03T17:50:56.720Z,63.81
2023-03-03T17:53:49.132Z,64.14
2023-03-03T17:57:02.321Z,63.53
2023-03-03T18:00:21.764Z,63.47
2023-03-03T18:03:55.511Z,63.31
2023-03-03T18:06:39.785Z,63.51
2023-03-03T18:09:21.739Z,63.70
2023-03-03T18:12:28.834Z,63.78
2023-03-03T18:18:41.928Z,64.06
2023-03-03T18:21:53.628Z,64.28
2023-03-03T18:25:07.823Z,64.07
2023-03-03T18:27:48.949Z,63.90
2023-03-03T18:30:25.313Z,63.85
2023-03-03T18:33:18.534Z,63.69
2023-03-03T18:35:51.651Z,63.82
2023-03-03T18:38:35.121Z,64.03
2023-03-03T18:41:11.897Z,64.29
2023-03-03T18:43:54.468Z,64.23
2023-03-03T18:46:31.195Z,64.21
2023-03-03T18:49:09.847Z,64.69
2023-03-03T18:51:43.740Z,64.63
2023-03-03T18:55:04.532Z,64.60
2023-03-03T18:57:36.197Z,64.32
2023-03-03T19:00:11.409Z,64.06
2023-03-03T19:02:49.597Z,64.13
2023-03-03T19:05:23.146Z,63.69
2023-03-03T19:08:02.664Z,63.97
2023-03-03T19:11:11.610Z,64.10
2023-03-03T19:13:42.765Z,64.11
2023-03-03T19:16:39.130Z,64.12
2023-03-03T19:19:40.514Z,64.41
2023-03-03T19:22:32.942Z,64.62
2023-03-03T19:25:18.698Z,64.35
2023-03-03T19:28:17.706Z,64.49
2023-03-03T19:31:19.082Z,64.12
2023-03-03T19:34:22.646Z,64.04
2023-03-03T19:37:31.691Z,64.04
2023-03-03T19:40:00.874Z,63.91
2023-03-03T19:43:13.480Z,63.83
2023-03-03T19:46:06.903Z,63.48
2023-03-03T19:49:19.287Z,64.05
2023-03-03T19:52:18.986Z,64.13
2023-03-03T19:55:10.103Z,64.04
2023-03-03T19:58:00.904Z,64.15
2023-03-03T20:00:45.141Z,63.72
2023-03-03T20:03:45.210Z,64.28
2023-03-03T20:06:33.345Z,64.02
2023-03-03T20:09:20.880Z,64.15
2023-03-03T20:12:06.746Z,63.52
2023-03-03T20:15:23.884Z,63.30
2023-03-03T20:18:35.301Z,63.26
2023-03-03T20:21:48.090Z,63.31
2023-03-03T20:24:51.597Z,63.30
2023-03-03T20:27:53.478Z,63.55
2023-03-03T20:31:00.035Z,63.72
2023-03-03T20:34:19.880Z,63.47
2023-03-03T20:37:01.332Z,63.27
2023-03-03T20:40:07.248Z,63.42
2023-03-03T20:43:00.681Z,62.87
2023-03-03T20:46:01.725Z,62.51
2023-03-03T20:48:54.297Z,62.83
2023-03-03T20:52:10.273Z,62.98
2023-03-03T20:55:10.854Z,62.65
2023-03-03T20:58:05.320Z,63.02
2023-03-03T21:00:54.726Z,63.05
2023-03-03T21:03:49.587Z,62.96
2023-03-03T21:06:20.704Z,62.83
2023-03-03T21:08:57.894Z,62.84
2023-03-03T21:11:43.829Z,62.63
2023-03-03T21:14:43.247Z,62.48
2023-03-03T21:18:06.553Z,62.76
2023-03-03T21:20:41.329Z,62.59
2023-03-03T21:23:22.781Z,63.14
2023-03-03T21:26:07.430Z,63.35
2023-03-03T21:28:35.337Z,63.09
2023-03-03T21:31:18.056Z,63.11
2023-03-03T21:33:57.152Z,63.56
2023-03-03T21:36:45.223Z,63.35
2023-03-03T21:39:36.275Z,63.81
2023-03-03T21:42:14.003Z,63.61
2023-03-03T21:44:55.199Z,63.79
2023-03-03T21:47:27.140Z,63.96
2023-03-03T21:50:02.586Z,64.09
2023-03-03T21:52:32.720Z,64.53
2023-03-03T21:55:03.354Z,64.51
2023-03-03T21:57:41.311Z,64.69
2023-03-03T22:00:21.084Z,64.61
2023-03-03T22:02:54.938Z,64.83
2023-03-03T22:05:25.098Z,65.40
2023-03-03T22:07:54.916Z,65.30
2023-03-03T22:10:34.471Z,65.25
2023-03-03T22:13:09.403Z,65.28
2023-03-03T22:15:44.304Z,65.36
2023-03-03T22:18:40.014Z,65.52
2023-03-03T22:21:12.539Z,65.36
2023-03-03T22:23:43.576Z,65.37
2023-03-03T22:26:22.967Z,65.68
2023-03-03T22:28:55.436Z,65.43
2023-03-03T22:31:30.167Z,65.78
2023-03-03T22:33:59.541Z,65.79
2023-03-03T22:36:33.528Z,66.12
2023-03-03T22:39:10.031Z,66.39
2023-03-03T22:41:39.565Z,66.52
2023-03-03T22:44:08.779Z,66.30
2023-03-03T22:46:38.729Z,66.32
2023-03-03T22:49:06.476Z,66.24
2023-03-03T22:51:34.840Z,66.07
2023-03-03T22:54:05.975Z,66.19
2023-03-03T22:57:00.030Z,66.30
2023-03-03T22:59:35.681Z,66.35
2023-03-03T23:02:05.572Z,66.75
2023-03-03T23:04:34.552Z,67.14
2023-03-03T23:07:10.438Z,67.46
2023-03-03T23:12:27.127Z,67.71
2023-03-03T23:14:57.214Z,67.34
2023-03-03T23:17:33.064Z,67.37
2023-03-03T23:20:11.182Z,67.42
2023-03-03T23:22:40.471Z,67.54
2023-03-03T23:25:11.300Z,67.53
2023-03-03T23:27:46.725Z,67.74
2023-03-03T23:30:20.076Z,68.12
2023-03-03T23:32:51.650Z,68.40
2023-03-03T23:35:21.371Z,68.84
2023-03-03T23:37:51.262Z,69.09
2023-03-03T23:43:30.529Z,69.67
2023-03-03T23:46:06.721Z,69.35
2023-03-03T23:48:42.364Z,69.18
2023-03-03T23:51:11.444Z,68.95
2023-03-03T23:54:10.926Z,68.94
2023-03-03T23:56:42.839Z,69.41
2023-03-03T23:59:11.045Z,69.74
